TimeMDT,TemperatureF,Dew PointF,Humidity,Sea Level PressureIn,VisibilityMPH,Wind Direction,Wind SpeedMPH,Gust SpeedMPH,PrecipitationIn,Events,Conditions,WindDirDegrees,DateUTC
12:35 AM,30.2,26.6,86,30.30,8.0,North,5.8,-,0.01,Snow,Light Snow,10,2012-10-06 06:35:00
12:42 AM,28.4,26.6,93,30.29,8.0,North,6.9,-,0.01,Snow,Light Snow,10,2012-10-06 06:42:00
12:53 AM,28.9,26.1,89,30.34,8.0,North,6.9,-,0.01,Snow,Light Snow,360,2012-10-06 06:53:00
1:11 AM,28.4,26.6,93,30.30,5.0,North,6.9,-,0.01,Snow,Light Snow,360,2012-10-06 07:11:00
1:53 AM,28.9,26.1,89,30.35,4.0,North,9.2,-,0.02,Snow,Light Snow,350,2012-10-06 07:53:00
2:06 AM,28.4,26.6,93,30.31,1.8,NNE,6.9,-,0.01,Snow,Light Snow,20,2012-10-06 08:06:00
2:41 AM,28.4,26.6,93,30.32,0.5,NNE,9.2,-,0.04,Fog-Snow,Snow,30,2012-10-06 08:41:00
2:53 AM,28.0,26.1,92,30.36,0.5,NNE,4.6,-,0.06,Fog-Snow,Snow,20,2012-10-06 08:53:00
3:23 AM,26.6,24.8,93,30.31,1.0,North,6.9,-,0.02,Snow,Light Snow,10,2012-10-06 09:23:00
3:46 AM,28.4,24.8,86,30.32,1.0,North,5.8,-,0.02,Snow,Light Snow,360,2012-10-06 09:46:00
3:53 AM,27.0,25.0,92,30.36,0.8,NNE,9.2,-,0.03,Snow,Light Snow,30,2012-10-06 09:53:00
4:34 AM,26.6,24.8,93,30.33,0.8,Calm,Calm,-,0.04,Snow,Light Snow,0,2012-10-06 10:34:00
4:41 AM,26.6,24.8,93,30.33,1.2,Calm,Calm,-,0.04,Snow,Light Snow,0,2012-10-06 10:41:00
4:53 AM,27.0,23.0,85,30.38,1.8,Calm,Calm,-,0.04,Snow,Light Snow,0,2012-10-06 10:53:00
4:57 AM,26.6,24.8,93,30.33,2.0,Calm,Calm,-,0.00,Snow,Light Snow,0,2012-10-06 10:57:00
5:29 AM,26.6,24.8,93,30.33,4.0,SW,3.5,-,0.01,Snow,Light Snow,220,2012-10-06 11:29:00
5:53 AM,26.1,23.0,88,30.40,9.0,SW,5.8,-,0.01,,Overcast,220,2012-10-06 11:53:00
6:53 AM,26.1,21.9,84,30.40,10.0,SW,4.6,-,N/A,,Overcast,230,2012-10-06 12:53:00
7:53 AM,25.0,21.0,85,30.41,10.0,Calm,Calm,-,N/A,,Overcast,0,2012-10-06 13:53:00
8:53 AM,26.1,23.0,88,30.42,10.0,Calm,Calm,-,N/A,,Mostly Cloudy,0,2012-10-06 14:53:00
9:53 AM,28.9,25.0,85,30.42,10.0,SE,6.9,-,N/A,,Clear,130,2012-10-06 15:53:00
10:53 AM,33.1,27.0,78,30.39,10.0,ESE,6.9,-,N/A,,Clear,110,2012-10-06 16:53:00
11:53 AM,35.1,26.1,70,30.38,10.0,SSE,8.1,-,N/A,,Clear,150,2012-10-06 17:53:00
12:53 PM,37.0,24.1,59,30.36,10.0,East,8.1,-,N/A,,Partly Cloudy,100,2012-10-06 18:53:00
1:53 PM,37.9,21.9,53,30.31,10.0,ENE,3.5,-,N/A,,Partly Cloudy,70,2012-10-06 19:53:00
2:53 PM,39.9,21.9,49,30.28,10.0,Calm,Calm,-,N/A,,Partly Cloudy,0,2012-10-06 20:53:00
3:53 PM,41.0,21.0,45,30.26,10.0,East,3.5,-,N/A,,Clear,80,2012-10-06 21:53:00
4:53 PM,42.1,21.9,45,30.23,10.0,ESE,5.8,-,N/A,,Clear,120,2012-10-06 22:53:00
5:53 PM,39.9,23.0,51,30.24,10.0,ENE,5.8,-,N/A,,Clear,70,2012-10-06 23:53:00
6:53 PM,35.1,19.9,54,30.26,10.0,NE,8.1,-,N/A,,Clear,50,2012-10-07 00:53:00
7:53 PM,34.0,19.0,54,30.27,10.0,Calm,Calm,-,N/A,,Clear,0,2012-10-07 01:53:00
8:53 PM,30.9,21.9,69,30.29,10.0,West,4.6,-,N/A,,Partly Cloudy,260,2012-10-07 02:53:00
9:53 PM,30.9,21.0,67,30.28,10.0,WSW,8.1,-,N/A,,Clear,250,2012-10-07 03:53:00
10:53 PM,28.9,19.9,69,30.28,10.0,WSW,8.1,-,N/A,,Clear,250,2012-10-07 04:53:00
11:53 PM,28.9,19.9,69,30.27,10.0,Calm,Calm,-,N/A,,Clear,0,2012-10-07 05:53:00